EPKT/KTW METAR and TAF weather

Enter ICAO airport designator
Station Type Date Time Source
EPKT METAR 2018/01/24 07:00 UTC NOAA

EPKT 240700Z 21008KT 6000 NSC 02/M01 Q1024


Station Type Date Time Source
EPKT Decoded METAR 2018/01/24 07:00 UTC NOAA

Katowice, Poland (EPKT) 50-14N 019-02E 284M
Jan 24, 2018 - 02:00 AM EST / 2018.01.24 0700 UTC
Wind: from the SSW (210 degrees) at 9 MPH (8 KT):0
Visibility: 3 mile(s):0
Temperature: 35 F (2 C)
Windchill: 28 F (-2 C):1
Dew Point: 30 F (-1 C)
Relative Humidity: 80%
Pressure (altimeter): 30.24 in. Hg (1024 hPa)
ob: EPKT 240700Z 21008KT 6000 NSC 02/M01 Q1024
cycle: 7

Station Type Date Time Source
EPKT TAF 2018/01/24 06:33 UTC NOAA

TAF EPKT 240530Z 2406/2506 18010KT 4000 BR BKN030
BECMG 2406/2409 9999 NSW
TEMPO 2409/2417 20015G26KT


Example: see airport list